createdAt,value
2022-12-31T00:02:00.425Z,12.10
2022-12-31T00:07:02.193Z,9.27
2022-12-31T00:12:04.005Z,7.72
2022-12-31T00:17:05.797Z,8.07
2022-12-31T00:22:07.607Z,7.32
2022-12-31T00:27:09.284Z,6.55
2022-12-31T00:32:11.160Z,10.23
2022-12-31T00:37:12.917Z,6.60
2022-12-31T00:42:14.657Z,10.32
2022-12-31T00:47:16.368Z,8.82
2022-12-31T00:52:18.445Z,8.32
2022-12-31T00:57:20.136Z,9.55
2022-12-31T01:02:22.033Z,6.47
2022-12-31T01:07:23.881Z,10.60
2022-12-31T01:12:25.786Z,7.68
2022-12-31T01:17:27.792Z,6.47
2022-12-31T01:22:29.526Z,8.57
2022-12-31T01:27:31.297Z,7.47
2022-12-31T01:32:33.054Z,7.55
2022-12-31T01:37:34.821Z,8.00
2022-12-31T01:42:36.774Z,9.13
2022-12-31T01:47:43.775Z,6.97
2022-12-31T01:52:49.362Z,8.18
2022-12-31T01:57:55.706Z,4.70
2022-12-31T02:02:57.681Z,10.70
2022-12-31T02:07:59.724Z,7.82
2022-12-31T02:13:02.193Z,8.63
2022-12-31T02:18:16.410Z,6.95
2022-12-31T02:24:00.666Z,6.07
2022-12-31T02:29:15.097Z,8.55
2022-12-31T02:34:32.683Z,4.10
2022-12-31T02:39:35.383Z,9.55
2022-12-31T02:44:38.545Z,10.88
2022-12-31T02:50:06.982Z,9.70
2022-12-31T02:55:18.892Z,6.22
2022-12-31T03:00:39.748Z,5.85
2022-12-31T03:05:44.445Z,7.95
2022-12-31T03:10:46.104Z,9.38
2022-12-31T03:15:47.881Z,9.15
2022-12-31T03:21:09.721Z,7.78
2022-12-31T03:26:13.148Z,5.70
2022-12-31T03:31:16.229Z,8.48
2022-12-31T03:36:18.008Z,6.60
2022-12-31T03:41:19.835Z,7.88
2022-12-31T03:46:21.654Z,9.43
2022-12-31T03:51:23.336Z,9.07
2022-12-31T03:56:25.004Z,5.32
2022-12-31T04:01:27.588Z,6.50
2022-12-31T04:06:29.425Z,11.52
2022-12-31T04:11:31.988Z,3.63
2022-12-31T04:16:33.792Z,4.03
2022-12-31T04:21:35.631Z,3.30
2022-12-31T04:26:38.429Z,4.85
2022-12-31T04:31:40.206Z,4.15
2022-12-31T04:36:42.086Z,6.75
2022-12-31T04:41:43.734Z,5.57
2022-12-31T04:46:45.727Z,5.55
2022-12-31T04:51:47.342Z,8.48
2022-12-31T04:56:49.084Z,4.32
2022-12-31T05:01:50.848Z,3.50
2022-12-31T05:06:52.616Z,3.05
2022-12-31T05:11:54.329Z,1.23
2022-12-31T05:16:56.041Z,2.38
2022-12-31T05:22:15.972Z,2.78
2022-12-31T05:27:17.632Z,0.85
2022-12-31T05:32:19.518Z,0.95
2022-12-31T05:37:21.184Z,0.28
2022-12-31T05:42:23.313Z,1.45
2022-12-31T05:47:25.486Z,0.95
2022-12-31T05:52:27.266Z,0.98
2022-12-31T05:57:29.162Z,0.98
2022-12-31T06:02:30.835Z,1.10
2022-12-31T06:07:32.864Z,1.15
2022-12-31T06:12:35.495Z,0.82
2022-12-31T06:17:37.237Z,1.35
2022-12-31T06:22:38.905Z,1.02
2022-12-31T06:27:40.640Z,2.80
2022-12-31T06:32:42.377Z,0.40
2022-12-31T06:37:44.247Z,0.30
2022-12-31T06:42:46.102Z,0.52
2022-12-31T06:47:47.774Z,0.85
2022-12-31T06:52:51.097Z,0.60
2022-12-31T06:57:53.171Z,1.15
2022-12-31T07:03:34.715Z,0.63
2022-12-31T07:08:56.248Z,2.67
2022-12-31T07:14:23.789Z,2.35
2022-12-31T07:19:42.285Z,4.00
2022-12-31T07:24:44.715Z,2.67
2022-12-31T07:30:04.465Z,2.65
2022-12-31T07:35:35.083Z,4.50
2022-12-31T07:40:54.187Z,5.10
2022-12-31T07:46:13.331Z,4.43
2022-12-31T07:51:15.449Z,4.20
2022-12-31T07:56:17.233Z,6.15
2022-12-31T08:01:35.916Z,4.53
2022-12-31T08:07:22.551Z,6.00
2022-12-31T08:12:27.997Z,4.45
2022-12-31T08:17:29.867Z,3.45
2022-12-31T08:22:53.029Z,3.65
2022-12-31T08:28:13.391Z,8.32
2022-12-31T08:33:24.789Z,9.40
2022-12-31T08:38:43.499Z,13.40
2022-12-31T08:43:59.213Z,5.60
2022-12-31T08:49:01.191Z,10.57
2022-12-31T08:54:03.215Z,10.73
2022-12-31T08:59:20.181Z,8.30
2022-12-31T09:04:29.278Z,11.13
2022-12-31T09:10:03.252Z,9.40
2022-12-31T09:15:08.405Z,10.82
2022-12-31T09:20:16.526Z,12.23
2022-12-31T09:25:21.534Z,13.10
2022-12-31T09:30:23.691Z,11.23
2022-12-31T09:35:45.352Z,12.95
2022-12-31T09:41:04.956Z,17.42
2022-12-31T09:46:21.673Z,8.80
2022-12-31T09:51:56.853Z,8.77
2022-12-31T09:57:25.282Z,8.68
2022-12-31T10:03:04.637Z,13.07
2022-12-31T10:08:34.915Z,9.18
2022-12-31T10:14:12.162Z,16.17
